Terminal Aerodrome Forecast
Issued by NWS

Home | Current Version | Previous Version | Text Only | Print | Product List | Glossary On
Versions: 1 2 3 4 5 6 7 8 9 10 11 12 13 14 15 16 17 18
446
FTUS46 KPDT 300627 AAA
TAFBDN
TAF AMD
KBDN 300627Z 3006/3106 22010KT P6SM -SHRA BKN035 OVC060
      TEMPO 3006/3010 5SM -RA BR OVC021
     FM301300 32008KT P6SM SCT040 BKN060
     FM301800 30013G23KT P6SM SCT060=

USA.gov is the U.S. government's official web portal to all federal, state and local government web resources and services.